Time;durP1;ratioP1;P1;durP2;ratioP2;P2;SDS_P1;SDS_P2;PMS_P1;PMS_P2;Temp;Humidity;BMP_temperature;BMP_pressure;BME280_temperature;BME280_humidity;BME280_pressure;Samples;Min_cycle;Max_cycle;Signal;HPM_P1;HPM_P2
2022/10/08 03:02:52;;;;;;;;;;;11.10;99.90;;;;;;5129054;23;19929;-65
2022/10/08 03:05:19;;;;;;;;;;;11.20;99.90;;;;;;5014445;28;19961;-66
2022/10/08 03:07:47;;;;;;;;;;;11.30;99.90;;;;;;5022839;28;20451;-66
2022/10/08 03:10:13;;;;;;;;;;;11.50;99.90;;;;;;5025438;28;19959;-67
2022/10/08 03:12:40;;;;;;;;;;;11.60;99.90;;;;;;4995520;28;19937;-67
2022/10/08 03:15:10;;;;;;;;;;;11.70;99.90;;;;;;4991327;28;20296;-68
2022/10/08 03:17:38;;;;;;;;;;;11.80;99.90;;;;;;4990968;28;19926;-67
2022/10/08 03:20:08;;;;;;;;;;;11.90;99.90;;;;;;5005960;28;20020;-68
2022/10/08 03:22:35;;;;;;;;;;;12.00;99.90;;;;;;4996515;28;19926;-67
2022/10/08 03:25:01;;;;;;;;;;;12.00;99.90;;;;;;4996952;28;19925;-67
2022/10/08 03:27:28;;;;;;;;;;;12.10;99.90;;;;;;4999351;28;19929;-66
2022/10/08 03:29:56;;;;;;;;;;;12.10;99.90;;;;;;5002208;28;19929;-66
2022/10/08 03:32:23;;;;;;;;;;;12.20;99.90;;;;;;4990783;28;19930;-67
2022/10/08 03:34:50;;;;;;;;;;;12.20;99.90;;;;;;4995576;28;20388;-67
2022/10/08 03:37:18;;;;;;;;;;;12.30;99.90;;;;;;4993670;28;19976;-67
2022/10/08 03:39:45;;;;;;;;;;;12.20;99.90;;;;;;4991038;28;19976;-67
2022/10/08 03:42:12;;;;;;;;;;;12.20;99.90;;;;;;4991013;28;19987;-66
2022/10/08 03:44:38;;;;;;;;;;;12.20;99.90;;;;;;4990842;28;19930;-67
2022/10/08 03:47:05;;;;;;;;;;;12.30;99.90;;;;;;4993621;28;19992;-65
2022/10/08 03:49:32;;;;;;;;;;;12.30;99.90;;;;;;5002108;28;20396;-67
2022/10/08 03:51:59;;;;;;;;;;;12.30;99.90;;;;;;5010666;28;19929;-67
2022/10/08 03:54:27;;;;;;;;;;;12.30;99.90;;;;;;5010368;28;19964;-67
2022/10/08 03:56:54;;;;;;;;;;;12.40;99.90;;;;;;5010685;28;20325;-67
2022/10/08 03:59:21;;;;;;;;;;;12.30;99.90;;;;;;5010269;28;19926;-66
2022/10/08 04:01:47;;;;;;;;;;;12.30;99.90;;;;;;5010405;28;19929;-67
2022/10/08 04:04:14;;;;;;;;;;;12.30;99.90;;;;;;5010511;28;19951;-66
2022/10/08 04:06:41;;;;;;;;;;;12.30;99.90;;;;;;5010796;28;19968;-67
2022/10/08 04:09:09;;;;;;;;;;;12.20;99.90;;;;;;5010206;28;19933;-68
2022/10/08 04:11:37;;;;;;;;;;;12.20;99.90;;;;;;5010392;28;20384;-67
2022/10/08 04:14:04;;;;;;;;;;;12.20;99.90;;;;;;5010236;28;19925;-67
2022/10/08 04:16:31;;;;;;;;;;;12.20;99.90;;;;;;5010464;28;19926;-67
2022/10/08 04:18:58;;;;;;;;;;;12.10;99.90;;;;;;5010245;28;19930;-67
2022/10/08 04:21:24;;;;;;;;;;;12.10;99.90;;;;;;5010287;28;19929;-67
2022/10/08 04:23:51;;;;;;;;;;;12.00;99.90;;;;;;5012197;28;19925;-67
2022/10/08 04:26:18;;;;;;;;;;;11.90;99.90;;;;;;5014209;28;20439;-68
2022/10/08 04:28:46;;;;;;;;;;;11.80;99.90;;;;;;5014315;28;20347;-67
2022/10/08 04:31:15;;;;;;;;;;;11.70;99.90;;;;;;5006423;28;19998;-66
2022/10/08 04:33:42;;;;;;;;;;;11.60;99.90;;;;;;5013724;28;19926;-67
2022/10/08 04:36:10;;;;;;;;;;;11.50;99.90;;;;;;5014146;28;19925;-68
2022/10/08 04:38:37;;;;;;;;;;;11.50;99.90;;;;;;5001634;28;19975;-67
2022/10/08 04:41:05;;;;;;;;;;;11.40;99.90;;;;;;4993963;28;20004;-67
2022/10/08 04:43:32;;;;;;;;;;;11.40;99.90;;;;;;4998311;28;19925;-67
2022/10/08 04:46:00;;;;;;;;;;;11.40;99.90;;;;;;5013751;28;19929;-68
2022/10/08 04:48:27;;;;;;;;;;;11.40;99.90;;;;;;5009618;28;20463;-70
2022/10/08 04:50:54;;;;;;;;;;;11.40;99.90;;;;;;4993917;28;20416;-66
2022/10/08 04:53:21;;;;;;;;;;;11.40;99.90;;;;;;4993702;28;19926;-67
2022/10/08 04:55:47;;;;;;;;;;;11.50;99.90;;;;;;4994173;28;19968;-67
2022/10/08 04:58:14;;;;;;;;;;;11.50;99.90;;;;;;4996793;28;19930;-66
2022/10/08 05:00:41;;;;;;;;;;;11.50;99.90;;;;;;4993222;28;20443;-67
2022/10/08 05:03:09;;;;;;;;;;;11.40;99.90;;;;;;4997116;28;19926;-67
2022/10/08 05:05:38;;;;;;;;;;;11.40;99.90;;;;;;4999861;28;20380;-67
2022/10/08 05:08:05;;;;;;;;;;;11.40;99.90;;;;;;5009776;28;19929;-66
2022/10/08 05:10:32;;;;;;;;;;;11.40;99.90;;;;;;4996622;28;20289;-66
2022/10/08 05:12:59;;;;;;;;;;;11.40;99.90;;;;;;5012736;28;19975;-67
2022/10/08 05:15:25;;;;;;;;;;;11.40;99.90;;;;;;5009569;28;19976;-67
2022/10/08 05:17:52;;;;;;;;;;;11.30;99.90;;;;;;5002844;28;19933;-67
2022/10/08 05:20:20;;;;;;;;;;;11.20;99.90;;;;;;5007336;28;19976;-67
2022/10/08 05:22:47;;;;;;;;;;;11.20;99.90;;;;;;5006572;28;19980;-67
2022/10/08 05:25:14;;;;;;;;;;;11.20;99.90;;;;;;5004003;28;19926;-67
2022/10/08 05:27:41;;;;;;;;;;;11.30;99.90;;;;;;5012615;28;19965;-67
2022/10/08 05:30:08;;;;;;;;;;;11.30;99.90;;;;;;4999649;28;20078;-68
2022/10/08 05:32:35;;;;;;;;;;;11.30;99.90;;;;;;4992743;28;20361;-67
2022/10/08 05:35:01;;;;;;;;;;;11.30;99.90;;;;;;5001876;28;19925;-68
2022/10/08 05:37:30;;;;;;;;;;;11.30;99.90;;;;;;5006030;28;19930;-67
2022/10/08 05:39:56;;;;;;;;;;;11.40;99.90;;;;;;5000618;28;19968;-67
2022/10/08 05:42:23;;;;;;;;;;;11.40;99.90;;;;;;5004173;28;19929;-68
2022/10/08 05:44:50;;;;;;;;;;;11.40;99.90;;;;;;4998694;28;19977;-68
2022/10/08 05:47:17;;;;;;;;;;;11.40;99.90;;;;;;4992904;28;19972;-68
2022/10/08 05:49:43;;;;;;;;;;;11.50;99.90;;;;;;4992694;28;19926;-67
2022/10/08 05:52:10;;;;;;;;;;;11.50;99.90;;;;;;5004098;28;20408;-68
2022/10/08 05:54:38;;;;;;;;;;;11.50;99.90;;;;;;5000965;28;19932;-66
2022/10/08 05:57:05;;;;;;;;;;;11.50;99.90;;;;;;5002046;28;19938;-71
2022/10/08 05:59:32;;;;;;;;;;;11.60;99.90;;;;;;5000552;28;19925;-72
2022/10/08 06:01:59;;;;;;;;;;;11.60;99.90;;;;;;5000722;28;19951;-65
2022/10/08 06:04:25;;;;;;;;;;;11.60;99.90;;;;;;5003486;28;19925;-67
2022/10/08 06:06:52;;;;;;;;;;;11.60;99.90;;;;;;5012473;28;20384;-66
2022/10/08 06:09:20;;;;;;;;;;;11.70;99.90;;;;;;5011870;28;19929;-74
2022/10/08 06:11:48;;;;;;;;;;;11.70;99.90;;;;;;4998338;28;19926;-66
2022/10/08 06:14:16;;;;;;;;;;;11.70;99.90;;;;;;4992269;28;19925;-69
2022/10/08 06:16:43;;;;;;;;;;;11.70;99.90;;;;;;5001807;28;19929;-69
2022/10/08 06:19:10;;;;;;;;;;;11.70;99.90;;;;;;5012020;28;20415;-72
2022/10/08 06:21:37;;;;;;;;;;;11.70;99.90;;;;;;5005729;28;19976;-68
2022/10/08 06:24:05;;;;;;;;;;;11.70;99.90;;;;;;5004690;28;19926;-68
2022/10/08 06:26:32;;;;;;;;;;;11.70;99.90;;;;;;4996728;28;19976;-76
2022/10/08 06:29:01;;;;;;;;;;;11.70;99.90;;;;;;5004630;28;19929;-69
2022/10/08 06:31:27;;;;;;;;;;;11.70;99.90;;;;;;5008775;28;19926;-69
2022/10/08 06:33:55;;;;;;;;;;;11.70;99.90;;;;;;5011001;28;20281;-68
2022/10/08 06:36:23;;;;;;;;;;;11.70;99.90;;;;;;5011106;28;19932;-69
2022/10/08 06:38:51;;;;;;;;;;;11.70;99.90;;;;;;5010677;28;19926;-67
2022/10/08 06:41:17;;;;;;;;;;;11.80;99.90;;;;;;5010868;28;19925;-68
2022/10/08 06:43:44;;;;;;;;;;;11.80;99.90;;;;;;5010549;28;19987;-69
2022/10/08 06:46:12;;;;;;;;;;;11.90;99.90;;;;;;5010095;28;19929;-69
2022/10/08 06:48:39;;;;;;;;;;;11.90;99.90;;;;;;5011081;28;19968;-69
2022/10/08 06:51:07;;;;;;;;;;;12.00;99.90;;;;;;5011268;28;19926;-68
2022/10/08 06:53:34;;;;;;;;;;;11.90;99.90;;;;;;5011151;28;19925;-69
2022/10/08 06:56:04;;;;;;;;;;;12.00;99.90;;;;;;5011175;28;19929;-69
2022/10/08 06:58:31;;;;;;;;;;;12.00;99.90;;;;;;5010858;28;19930;-69
2022/10/08 07:01:02;;;;;;;;;;;12.00;99.90;;;;;;5010859;28;19976;-69
2022/10/08 07:03:30;;;;;;;;;;;12.10;99.90;;;;;;5010834;28;20414;-69
2022/10/08 07:05:59;;;;;;;;;;;12.10;99.90;;;;;;5011186;28;20040;-69
2022/10/08 07:08:26;;;;;;;;;;;12.10;99.90;;;;;;5010812;28;19925;-69
2022/10/08 07:10:53;;;;;;;;;;;12.10;99.90;;;;;;5003878;28;19933;-68
2022/10/08 07:13:19;;;;;;;;;;;12.10;99.90;;;;;;4991163;28;20000;-68
2022/10/08 07:15:46;;;;;;;;;;;12.10;99.90;;;;;;4991638;28;19926;-68
2022/10/08 07:18:14;;;;;;;;;;;12.20;99.90;;;;;;4991323;28;20408;-67
2022/10/08 07:20:43;;;;;;;;;;;12.30;99.90;;;;;;4991279;28;19985;-68
2022/10/08 07:23:09;;;;;;;;;;;12.30;99.90;;;;;;4991106;28;20351;-68
2022/10/08 07:25:36;;;;;;;;;;;12.40;99.90;;;;;;4991426;28;19926;-68
2022/10/08 07:28:03;;;;;;;;;;;12.50;99.90;;;;;;4991295;28;19926;-68
2022/10/08 07:30:31;;;;;;;;;;;12.60;99.90;;;;;;4990863;28;20463;-68
2022/10/08 07:32:59;;;;;;;;;;;12.70;99.90;;;;;;4990813;28;19932;-68
2022/10/08 07:35:25;;;;;;;;;;;12.90;99.90;;;;;;4990898;28;19926;-68
2022/10/08 07:37:55;;;;;;;;;;;13.00;99.90;;;;;;4990844;28;19926;-68
2022/10/08 07:40:22;;;;;;;;;;;13.10;99.90;;;;;;4990417;28;19925;-68
2022/10/08 07:42:48;;;;;;;;;;;13.10;99.90;;;;;;4990719;28;19933;-68
2022/10/08 07:45:15;;;;;;;;;;;13.10;99.90;;;;;;4991024;28;19926;-69
2022/10/08 07:47:42;;;;;;;;;;;13.00;99.90;;;;;;4990744;28;20008;-69
2022/10/08 07:50:09;;;;;;;;;;;13.00;99.90;;;;;;4989957;28;19925;-68
2022/10/08 07:52:36;;;;;;;;;;;13.00;99.90;;;;;;4990238;28;20459;-69
2022/10/08 07:55:04;;;;;;;;;;;12.90;99.90;;;;;;4990428;28;20392;-68
2022/10/08 07:57:31;;;;;;;;;;;12.90;99.90;;;;;;4990345;28;20025;-68
2022/10/08 07:59:57;;;;;;;;;;;12.90;99.90;;;;;;4990407;28;19925;-69
2022/10/08 08:02:24;;;;;;;;;;;13.10;99.90;;;;;;4990264;28;19996;-69
2022/10/08 08:04:51;;;;;;;;;;;13.10;99.90;;;;;;4990790;28;19926;-68
2022/10/08 08:07:18;;;;;;;;;;;13.20;99.90;;;;;;4990638;28;19933;-69
2022/10/08 08:09:44;;;;;;;;;;;13.40;99.90;;;;;;4990015;28;19926;-69
2022/10/08 08:12:12;;;;;;;;;;;13.40;99.90;;;;;;4990310;28;19996;-67
2022/10/08 08:14:39;;;;;;;;;;;13.70;99.90;;;;;;4990557;28;20439;-68
2022/10/08 08:17:06;;;;;;;;;;;13.70;99.90;;;;;;4990471;28;19968;-69
2022/10/08 08:19:33;;;;;;;;;;;13.80;99.90;;;;;;4990320;28;20372;-69
2022/10/08 08:21:59;;;;;;;;;;;13.80;99.90;;;;;;4990380;28;19926;-69
2022/10/08 08:24:26;;;;;;;;;;;13.90;99.90;;;;;;4990177;28;19926;-68
2022/10/08 08:26:53;;;;;;;;;;;13.90;99.90;;;;;;4990725;28;19925;-69
2022/10/08 08:29:21;;;;;;;;;;;14.00;99.90;;;;;;4990094;28;19985;-69
2022/10/08 08:31:49;;;;;;;;;;;13.90;99.90;;;;;;4990179;28;19972;-69
2022/10/08 08:34:17;;;;;;;;;;;13.80;99.90;;;;;;4990323;28;19980;-69
2022/10/08 08:36:45;;;;;;;;;;;13.80;99.90;;;;;;4990275;28;19929;-68
2022/10/08 08:39:14;;;;;;;;;;;14.00;99.90;;;;;;4990346;28;19930;-68
2022/10/08 08:41:48;;;;;;;;;;;14.00;99.90;;;;;;4990320;28;19933;-68
2022/10/08 08:44:18;;;;;;;;;;;14.00;99.90;;;;;;4990027;28;19985;-69
2022/10/08 08:46:50;;;;;;;;;;;14.10;99.90;;;;;;4990357;28;19926;-68
2022/10/08 08:49:19;;;;;;;;;;;14.20;99.90;;;;;;4989540;28;19925;-69
2022/10/08 08:51:46;;;;;;;;;;;14.20;99.90;;;;;;4990181;28;19951;-70
2022/10/08 08:54:13;;;;;;;;;;;14.30;99.90;;;;;;4989889;28;19927;-68
2022/10/08 08:56:40;;;;;;;;;;;14.40;99.90;;;;;;4990060;28;19964;-69
2022/10/08 08:59:15;;;;;;;;;;;14.60;99.90;;;;;;4990049;28;19957;-69
2022/10/08 09:01:42;;;;;;;;;;;14.60;99.90;;;;;;4989960;28;19933;-68
2022/10/08 09:04:15;;;;;;;;;;;14.70;99.90;;;;;;4989846;28;19930;-68
2022/10/08 09:06:42;;;;;;;;;;;14.70;99.90;;;;;;4989959;28;20020;-69
2022/10/08 09:09:15;;;;;;;;;;;14.70;99.90;;;;;;4990786;28;19956;-69
2022/10/08 09:11:43;;;;;;;;;;;14.50;99.90;;;;;;4993625;28;19934;-67
2022/10/08 09:14:16;;;;;;;;;;;14.50;99.90;;;;;;4993382;28;19933;-69
2022/10/08 09:16:43;;;;;;;;;;;14.60;99.90;;;;;;4993847;28;20368;-68
2022/10/08 09:19:11;;;;;;;;;;;14.60;99.90;;;;;;4993313;28;19980;-69
2022/10/08 09:21:38;;;;;;;;;;;14.50;99.90;;;;;;4993363;28;19925;-69
2022/10/08 09:24:05;;;;;;;;;;;14.50;99.90;;;;;;4993171;28;19980;-68
2022/10/08 09:26:33;;;;;;;;;;;14.60;99.90;;;;;;4993388;28;19925;-68
2022/10/08 09:29:01;;;;;;;;;;;14.70;99.90;;;;;;4993009;28;19953;-69
2022/10/08 09:31:30;;;;;;;;;;;14.90;99.90;;;;;;4993420;28;19969;-68
2022/10/08 09:33:58;;;;;;;;;;;15.20;99.90;;;;;;4993026;28;19932;-68
2022/10/08 09:36:34;;;;;;;;;;;15.00;99.90;;;;;;4993352;28;19926;-68
2022/10/08 09:39:01;;;;;;;;;;;15.00;99.90;;;;;;4993064;28;20420;-68
2022/10/08 09:41:29;;;;;;;;;;;14.90;99.90;;;;;;4993163;28;19932;-67
2022/10/08 09:44:11;;;;;;;;;;;15.20;99.90;;;;;;4992913;28;19926;-69
2022/10/08 09:46:37;;;;;;;;;;;15.20;99.90;;;;;;4992926;28;20388;-67
2022/10/08 09:49:19;;;;;;;;;;;15.20;99.90;;;;;;4992497;28;19950;-68
2022/10/08 09:51:48;;;;;;;;;;;15.40;99.90;;;;;;4992790;28;19926;-69
2022/10/08 09:54:17;;;;;;;;;;;15.50;99.90;;;;;;4992397;28;19929;-68
2022/10/08 09:56:51;;;;;;;;;;;15.80;99.90;;;;;;4992906;28;19933;-68
2022/10/08 09:59:20;;;;;;;;;;;15.80;99.90;;;;;;4992325;28;19926;-68
2022/10/08 10:01:47;;;;;;;;;;;15.60;99.90;;;;;;4992643;28;19973;-68
2022/10/08 10:04:19;;;;;;;;;;;15.30;99.90;;;;;;4992431;28;19925;-69
2022/10/08 10:06:47;;;;;;;;;;;15.30;99.90;;;;;;4992514;28;19926;-68
2022/10/08 10:09:23;;;;;;;;;;;15.40;99.90;;;;;;4992338;28;19926;-68
2022/10/08 10:11:52;;;;;;;;;;;15.70;99.90;;;;;;5006689;28;19926;-69
2022/10/08 10:14:23;;;;;;;;;;;15.70;99.90;;;;;;5011793;28;20335;-69
2022/10/08 10:16:54;;;;;;;;;;;15.60;99.90;;;;;;5011865;28;19991;-69
2022/10/08 10:19:22;;;;;;;;;;;15.80;99.90;;;;;;5011567;28;19949;-69
2022/10/08 10:21:52;;;;;;;;;;;16.00;99.90;;;;;;5011745;28;20458;-68
2022/10/08 10:24:35;;;;;;;;;;;16.20;99.90;;;;;;5011475;28;19929;-69
2022/10/08 10:27:05;;;;;;;;;;;16.30;99.90;;;;;;5011818;28;19926;-69
2022/10/08 10:29:37;;;;;;;;;;;19.30;99.90;;;;;;5011410;28;19925;-69
2022/10/08 10:32:07;;;;;;;;;;;23.40;99.90;;;;;;5011524;28;19929;-69
2022/10/08 10:34:35;;;;;;;;;;;26.80;99.90;;;;;;5011509;28;19935;-68
2022/10/08 10:37:04;;;;;;;;;;;24.90;99.90;;;;;;5011519;28;19988;-69
2022/10/08 10:39:36;;;;;;;;;;;23.60;99.90;;;;;;5011143;28;19925;-69
2022/10/08 10:42:07;;;;;;;;;;;21.30;99.90;;;;;;5011368;28;19961;-69
2022/10/08 10:44:35;;;;;;;;;;;20.60;99.90;;;;;;5011059;28;19936;-70
2022/10/08 10:47:03;;;;;;;;;;;18.70;99.90;;;;;;5011625;28;19926;-69
2022/10/08 10:49:33;;;;;;;;;;;17.90;99.90;;;;;;5010790;28;19926;-69
2022/10/08 10:52:03;;;;;;;;;;;17.00;99.90;;;;;;5011082;28;20470;-69
2022/10/08 10:54:53;;;;;;;;;;;16.40;99.90;;;;;;5011079;28;19930;-68
2022/10/08 10:57:26;;;;;;;;;;;17.10;99.90;;;;;;5011289;28;19929;-69
2022/10/08 10:59:58;;;;;;;;;;;20.50;99.90;;;;;;5010970;28;19930;-69
2022/10/08 11:02:30;;;;;;;;;;;24.10;99.90;;;;;;5010630;28;19929;-69
2022/10/08 11:05:01;;;;;;;;;;;26.20;99.90;;;;;;5011174;28;19926;-66
2022/10/08 11:07:52;;;;;;;;;;;28.50;99.90;;;;;;5011192;28;19949;-66
2022/10/08 11:10:25;;;;;;;;;;;28.30;99.90;;;;;;4991188;28;19925;-67
2022/10/08 11:12:56;;;;;;;;;;;27.80;99.90;;;;;;5010568;28;19925;-69
2022/10/08 11:15:27;;;;;;;;;;;26.60;99.90;;;;;;5010783;28;19930;-70
2022/10/08 11:18:01;;;;;;;;;;;22.20;99.90;;;;;;5010895;28;19934;-69
2022/10/08 11:20:38;;;;;;;;;;;19.50;99.90;;;;;;5010444;28;19925;-68
2022/10/08 11:23:10;;;;;;;;;;;17.50;99.90;;;;;;5010413;28;19933;-70
2022/10/08 11:25:41;;;;;;;;;;;16.50;99.90;;;;;;5010684;28;20458;-69
2022/10/08 11:28:16;;;;;;;;;;;16.20;99.90;;;;;;5010952;28;19932;-68
2022/10/08 11:30:46;;;;;;;;;;;16.00;99.90;;;;;;5010404;28;19925;-68
2022/10/08 11:33:14;;;;;;;;;;;15.80;99.90;;;;;;5009912;28;19925;-69
2022/10/08 11:35:43;;;;;;;;;;;19.80;99.90;;;;;;5010657;28;19948;-69
2022/10/08 11:38:11;;;;;;;;;;;22.40;99.90;;;;;;5010324;28;19980;-68
2022/10/08 11:40:43;;;;;;;;;;;25.00;99.90;;;;;;5010219;28;19929;-68
2022/10/08 11:43:13;;;;;;;;;;;24.10;99.90;;;;;;5010550;28;19980;-68
2022/10/08 11:45:40;;;;;;;;;;;24.00;99.90;;;;;;5010777;28;19926;-67
2022/10/08 11:48:30;;;;;;;;;;;27.20;99.90;;;;;;5010129;28;20021;-67
2022/10/08 11:51:15;;;;;;;;;;;28.00;99.90;;;;;;5010510;28;19926;-67
2022/10/08 11:53:42;;;;;;;;;;;28.10;99.90;;;;;;5010331;28;19926;-67
2022/10/08 11:56:11;;;;;;;;;;;28.50;99.90;;;;;;5010402;28;19961;-68
2022/10/08 11:58:38;;;;;;;;;;;27.10;99.90;;;;;;5010625;28;19932;-69
2022/10/08 12:01:06;;;;;;;;;;;25.90;99.90;;;;;;5010073;28;19988;-68
2022/10/08 12:03:35;;;;;;;;;;;26.60;99.90;;;;;;5010131;28;20348;-69
2022/10/08 12:06:14;;;;;;;;;;;27.80;99.90;;;;;;5010072;28;20308;-70
2022/10/08 12:08:49;;;;;;;;;;;28.90;99.90;;;;;;5010211;28;19925;-67
2022/10/08 12:11:35;;;;;;;;;;;29.00;99.90;;;;;;5000418;28;19926;-67
2022/10/08 12:14:26;;;;;;;;;;;30.30;99.90;;;;;;5006448;28;19965;-67
2022/10/08 12:17:10;;;;;;;;;;;29.30;99.90;;;;;;4986990;28;19926;-69
2022/10/08 12:20:07;;;;;;;;;;;27.90;99.90;;;;;;4990261;28;19926;-69
2022/10/08 12:22:42;;;;;;;;;;;26.90;99.90;;;;;;4990333;28;19941;-70
2022/10/08 12:25:24;;;;;;;;;;;27.50;99.90;;;;;;4990548;28;20407;-69
2022/10/08 12:27:51;;;;;;;;;;;28.00;99.90;;;;;;5006105;28;19997;-69
2022/10/08 12:30:17;;;;;;;;;;;26.10;99.90;;;;;;4990062;28;20396;-70
2022/10/08 12:32:51;;;;;;;;;;;27.40;99.90;;;;;;4989996;28;19926;-69
2022/10/08 12:35:23;;;;;;;;;;;28.10;99.90;;;;;;4990524;28;19929;-70
2022/10/08 12:38:12;;;;;;;;;;;27.30;99.90;;;;;;4990166;28;19930;-70
2022/10/08 12:40:42;;;;;;;;;;;24.30;99.90;;;;;;5001661;28;19953;-69
2022/10/08 12:43:14;;;;;;;;;;;23.00;99.90;;;;;;4989760;28;20404;-68
2022/10/08 12:45:46;;;;;;;;;;;22.60;99.90;;;;;;4993488;28;19926;-69
2022/10/08 12:48:19;;;;;;;;;;;20.60;99.90;;;;;;4993496;28;19926;-69
2022/10/08 12:50:51;;;;;;;;;;;18.90;99.90;;;;;;4993838;28;19965;-69
2022/10/08 12:53:18;;;;;;;;;;;18.00;99.90;;;;;;4993659;28;20376;-69
2022/10/08 12:55:48;;;;;;;;;;;18.60;99.90;;;;;;4993824;28;19929;-69
2022/10/08 12:58:17;;;;;;;;;;;21.20;99.90;;;;;;4993681;28;19980;-69
2022/10/08 13:00:44;;;;;;;;;;;23.50;99.90;;;;;;4993524;28;20347;-69
2022/10/08 13:03:13;;;;;;;;;;;24.80;99.90;;;;;;4993581;28;19925;-70
2022/10/08 13:05:42;;;;;;;;;;;24.90;99.90;;;;;;4993523;28;19961;-70
2022/10/08 13:08:25;;;;;;;;;;;26.30;99.90;;;;;;4993616;28;19941;-69
2022/10/08 13:10:54;;;;;;;;;;;25.40;99.90;;;;;;4993174;28;19980;-69
2022/10/08 13:13:31;;;;;;;;;;;25.10;99.90;;;;;;4993492;28;20472;-70
2022/10/08 13:15:58;;;;;;;;;;;24.60;99.90;;;;;;4993506;28;19926;-69
2022/10/08 13:18:25;;;;;;;;;;;23.40;99.90;;;;;;4993365;28;19929;-68
2022/10/08 13:20:56;;;;;;;;;;;23.60;99.90;;;;;;4992896;28;19926;-69
2022/10/08 13:23:24;;;;;;;;;;;22.70;99.90;;;;;;4993069;28;19965;-69
2022/10/08 13:25:50;;;;;;;;;;;21.00;99.90;;;;;;4993449;28;19930;-70
2022/10/08 13:28:22;;;;;;;;;;;21.80;99.90;;;;;;4993451;28;19925;-70
2022/10/08 13:30:50;;;;;;;;;;;22.60;99.90;;;;;;4992948;28;20385;-69
2022/10/08 13:33:18;;;;;;;;;;;22.60;99.90;;;;;;4992796;28;19926;-69
2022/10/08 13:35:50;;;;;;;;;;;22.00;99.90;;;;;;4993096;28;19926;-70
2022/10/08 13:38:19;;;;;;;;;;;22.30;99.90;;;;;;4993203;28;19976;-69
2022/10/08 13:40:49;;;;;;;;;;;23.00;99.90;;;;;;4992676;28;20000;-70
2022/10/08 13:43:15;;;;;;;;;;;22.80;99.90;;;;;;4992621;28;19929;-69
2022/10/08 13:45:43;;;;;;;;;;;22.40;99.90;;;;;;4993018;28;19973;-69
2022/10/08 13:48:11;;;;;;;;;;;22.50;99.90;;;;;;4992505;28;20100;-70
2022/10/08 13:50:41;;;;;;;;;;;22.30;99.90;;;;;;4993109;28;19926;-69
2022/10/08 13:53:09;;;;;;;;;;;22.70;99.90;;;;;;4992643;28;19929;-69
2022/10/08 13:55:36;;;;;;;;;;;23.60;99.90;;;;;;4992553;28;19930;-69
2022/10/08 13:58:04;;;;;;;;;;;24.20;99.90;;;;;;4992857;28;20360;-69
2022/10/08 14:00:32;;;;;;;;;;;24.50;99.90;;;;;;4992546;28;19980;-70
2022/10/08 14:03:00;;;;;;;;;;;24.90;99.90;;;;;;4992712;28;19930;-69
2022/10/08 14:05:28;;;;;;;;;;;25.40;99.90;;;;;;4993093;28;19984;-68
2022/10/08 14:07:56;;;;;;;;;;;25.80;99.90;;;;;;4992532;28;20025;-67
2022/10/08 14:10:23;;;;;;;;;;;25.20;99.90;;;;;;4995012;28;19926;-68
2022/10/08 14:12:50;;;;;;;;;;;25.20;99.90;;;;;;5011718;28;19926;-68
2022/10/08 14:15:17;;;;;;;;;;;24.60;99.90;;;;;;5011916;28;19925;-68
2022/10/08 14:17:44;;;;;;;;;;;22.80;99.90;;;;;;5012203;28;19925;-69
2022/10/08 14:20:12;;;;;;;;;;;22.30;99.90;;;;;;5011908;28;19988;-68
2022/10/08 14:22:39;;;;;;;;;;;23.00;99.90;;;;;;5011448;28;20400;-68
2022/10/08 14:25:07;;;;;;;;;;;23.70;99.90;;;;;;5011910;28;19930;-68
2022/10/08 14:27:33;;;;;;;;;;;24.70;99.90;;;;;;5011680;28;19926;-68
2022/10/08 14:30:00;;;;;;;;;;;24.10;99.90;;;;;;5011254;28;20445;-68
2022/10/08 14:32:27;;;;;;;;;;;22.20;99.90;;;;;;5011302;28;19929;-69
2022/10/08 14:34:54;;;;;;;;;;;21.40;99.90;;;;;;5011705;28;19949;-70
2022/10/08 14:37:22;;;;;;;;;;;20.30;99.90;;;;;;5011669;28;19948;-70
2022/10/08 14:39:49;;;;;;;;;;;20.00;99.90;;;;;;5011396;28;19984;-69
2022/10/08 14:42:15;;;;;;;;;;;21.00;99.90;;;;;;5011252;28;19965;-68
2022/10/08 14:44:42;;;;;;;;;;;22.40;99.90;;;;;;5011585;28;19984;-68
2022/10/08 14:47:09;;;;;;;;;;;23.50;99.90;;;;;;5011300;28;19937;-69
2022/10/08 14:49:36;;;;;;;;;;;23.90;99.90;;;;;;5010934;28;19983;-68
2022/10/08 14:52:03;;;;;;;;;;;24.30;99.90;;;;;;5011122;28;20355;-67
2022/10/08 14:54:31;;;;;;;;;;;22.80;99.90;;;;;;5011396;28;19930;-69
2022/10/08 14:56:58;;;;;;;;;;;22.90;99.90;;;;;;5011332;28;19925;-68
2022/10/08 14:59:24;;;;;;;;;;;23.40;99.90;;;;;;5010783;28;19972;-68
2022/10/08 15:01:51;;;;;;;;;;;24.00;99.90;;;;;;5037094;23;19933;-69
2022/10/08 15:04:18;;;;;;;;;;;24.40;99.90;;;;;;5021705;28;19932;-70
2022/10/08 15:06:44;;;;;;;;;;;24.10;99.90;;;;;;5030023;28;20455;-68
2022/10/08 15:09:11;;;;;;;;;;;24.10;99.90;;;;;;5030420;28;19932;-67
2022/10/08 15:11:39;;;;;;;;;;;24.00;99.90;;;;;;5013714;28;19980;-69
2022/10/08 15:14:06;;;;;;;;;;;23.90;99.90;;;;;;4991994;28;19926;-69
2022/10/08 15:16:32;;;;;;;;;;;24.10;99.90;;;;;;4992394;28;20024;-70
2022/10/08 15:18:59;;;;;;;;;;;23.60;99.90;;;;;;4992095;28;20024;-69
2022/10/08 15:21:26;;;;;;;;;;;23.40;99.90;;;;;;4991115;28;19932;-70
2022/10/08 15:23:54;;;;;;;;;;;23.60;99.90;;;;;;4992031;28;19926;-68
2022/10/08 15:26:21;;;;;;;;;;;23.60;99.90;;;;;;4991111;28;19929;-70
2022/10/08 15:28:52;;;;;;;;;;;23.90;99.90;;;;;;4990880;28;19980;-70
2022/10/08 15:31:19;;;;;;;;;;;24.10;99.90;;;;;;4991024;28;19926;-69
2022/10/08 15:33:47;;;;;;;;;;;24.70;99.90;;;;;;4990524;28;20382;-71
2022/10/08 15:36:16;;;;;;;;;;;24.20;99.90;;;;;;4990851;28;19969;-69
2022/10/08 15:38:43;;;;;;;;;;;24.10;99.90;;;;;;4990768;28;20044;-69
2022/10/08 15:41:10;;;;;;;;;;;23.60;99.90;;;;;;4990378;28;19926;-69
2022/10/08 15:43:36;;;;;;;;;;;23.20;99.90;;;;;;4990647;28;19933;-69
2022/10/08 15:46:09;;;;;;;;;;;22.80;99.90;;;;;;4990740;28;19987;-70
2022/10/08 15:48:36;;;;;;;;;;;23.10;99.90;;;;;;4990275;28;20419;-69
2022/10/08 15:51:02;;;;;;;;;;;22.80;99.90;;;;;;4990492;28;19925;-69
2022/10/08 15:53:32;;;;;;;;;;;22.70;99.90;;;;;;4990562;28;20385;-68
2022/10/08 15:55:59;;;;;;;;;;;22.10;99.90;;;;;;4990851;28;19929;-69
2022/10/08 15:58:25;;;;;;;;;;;22.10;99.90;;;;;;4990493;28;19926;-69
2022/10/08 16:00:52;;;;;;;;;;;21.40;99.90;;;;;;4990641;28;20004;-69
2022/10/08 16:03:20;;;;;;;;;;;21.50;99.90;;;;;;4990389;28;19973;-69
2022/10/08 16:05:47;;;;;;;;;;;20.90;99.90;;;;;;4990949;28;19984;-69
2022/10/08 16:08:14;;;;;;;;;;;20.10;99.90;;;;;;4990751;28;19930;-69
2022/10/08 16:10:40;;;;;;;;;;;19.30;99.90;;;;;;4990747;28;20420;-68
2022/10/08 16:13:07;;;;;;;;;;;18.80;99.90;;;;;;5023060;28;19977;-68
2022/10/08 16:15:36;;;;;;;;;;;18.10;99.90;;;;;;5023843;28;19925;-68
2022/10/08 16:18:03;;;;;;;;;;;17.50;99.90;;;;;;5007630;28;19953;-68
2022/10/08 16:20:31;;;;;;;;;;;17.10;99.90;;;;;;5027259;28;19965;-68
2022/10/08 16:22:58;;;;;;;;;;;16.80;99.90;;;;;;5026862;28;20463;-68
2022/10/08 16:25:24;;;;;;;;;;;16.50;99.90;;;;;;5027373;28;19929;-69
2022/10/08 16:27:51;;;;;;;;;;;16.30;99.90;;;;;;5027088;28;19926;-69
2022/10/08 16:30:18;;;;;;;;;;;16.20;99.90;;;;;;5027101;28;19925;-68
2022/10/08 16:32:45;;;;;;;;;;;16.00;99.90;;;;;;5026701;28;19930;-68
2022/10/08 16:35:11;;;;;;;;;;;16.00;99.90;;;;;;5027126;28;19973;-69
2022/10/08 16:37:39;;;;;;;;;;;15.80;99.90;;;;;;5026833;28;20360;-69
2022/10/08 16:40:07;;;;;;;;;;;15.70;99.90;;;;;;5026595;28;19926;-69
2022/10/08 16:42:33;;;;;;;;;;;15.50;99.90;;;;;;5026752;28;19926;-67
2022/10/08 16:45:00;;;;;;;;;;;15.40;99.90;;;;;;5026783;28;19929;-69
2022/10/08 16:47:27;;;;;;;;;;;15.20;99.90;;;;;;5010331;28;20387;-69
2022/10/08 16:49:54;;;;;;;;;;;15.10;99.90;;;;;;5026374;28;19933;-67
2022/10/08 16:52:20;;;;;;;;;;;15.00;99.90;;;;;;5026412;28;19930;-68
2022/10/08 16:54:51;;;;;;;;;;;14.80;99.90;;;;;;5026603;28;20377;-68
2022/10/08 16:57:19;;;;;;;;;;;14.70;99.90;;;;;;5026734;28;19933;-67
2022/10/08 16:59:45;;;;;;;;;;;14.60;99.90;;;;;;5026378;28;19933;-69
2022/10/08 17:02:12;;;;;;;;;;;14.40;99.90;;;;;;5026229;28;20348;-68
2022/10/08 17:04:39;;;;;;;;;;;14.30;99.90;;;;;;5026308;28;19934;-67
2022/10/08 17:07:06;;;;;;;;;;;14.20;99.90;;;;;;5010353;28;20290;-69
2022/10/08 17:09:33;;;;;;;;;;;14.20;99.90;;;;;;5009610;28;20119;-69
2022/10/08 17:12:01;;;;;;;;;;;14.00;99.90;;;;;;5029623;28;19976;-69
2022/10/08 17:14:29;;;;;;;;;;;13.90;99.90;;;;;;5012824;28;20466;-69
2022/10/08 17:16:55;;;;;;;;;;;13.90;99.90;;;;;;5013177;28;19930;-69
2022/10/08 17:19:22;;;;;;;;;;;13.80;99.90;;;;;;5012672;28;19929;-68
2022/10/08 17:21:49;;;;;;;;;;;13.70;99.90;;;;;;5012677;28;19929;-69
2022/10/08 17:24:16;;;;;;;;;;;13.60;99.90;;;;;;5012837;28;19926;-69
2022/10/08 17:26:42;;;;;;;;;;;13.50;99.90;;;;;;5012790;28;19925;-69